sensor_id;sensor_type;location;lat;lon;timestamp;temperature;humidity
14411;DHT22;7290;50.854;4.354;2023-03-23T00:01:16;13.80;99.90
14411;DHT22;7290;50.854;4.354;2023-03-23T00:03:46;13.80;99.90
14411;DHT22;7290;50.854;4.354;2023-03-23T00:06:13;13.80;99.90
14411;DHT22;7290;50.854;4.354;2023-03-23T00:08:44;13.80;99.90
14411;DHT22;7290;50.854;4.354;2023-03-23T00:11:10;13.70;99.90
14411;DHT22;7290;50.854;4.354;2023-03-23T00:13:41;13.70;99.90
14411;DHT22;7290;50.854;4.354;2023-03-23T00:16:08;13.70;99.90
14411;DHT22;7290;50.854;4.354;2023-03-23T00:18:43;13.80;99.90
14411;DHT22;7290;50.854;4.354;2023-03-23T00:21:10;13.70;99.90
14411;DHT22;7290;50.854;4.354;2023-03-23T00:23:36;13.70;99.90
14411;DHT22;7290;50.854;4.354;2023-03-23T00:26:03;13.70;99.90
14411;DHT22;7290;50.854;4.354;2023-03-23T00:28:30;13.70;99.90
14411;DHT22;7290;50.854;4.354;2023-03-23T00:30:57;13.80;99.90
14411;DHT22;7290;50.854;4.354;2023-03-23T00:33:23;13.80;99.90
14411;DHT22;7290;50.854;4.354;2023-03-23T00:35:50;13.80;99.90
14411;DHT22;7290;50.854;4.354;2023-03-23T00:38:18;13.80;99.90
14411;DHT22;7290;50.854;4.354;2023-03-23T00:40:44;13.80;99.90
14411;DHT22;7290;50.854;4.354;2023-03-23T00:43:12;13.70;99.90
14411;DHT22;7290;50.854;4.354;2023-03-23T00:45:39;13.70;99.90
14411;DHT22;7290;50.854;4.354;2023-03-23T00:48:05;13.80;99.90
14411;DHT22;7290;50.854;4.354;2023-03-23T00:50:31;13.70;99.90
14411;DHT22;7290;50.854;4.354;2023-03-23T00:52:57;13.70;99.90
14411;DHT22;7290;50.854;4.354;2023-03-23T00:55:25;13.70;99.90
14411;DHT22;7290;50.854;4.354;2023-03-23T00:57:51;13.70;99.90
14411;DHT22;7290;50.854;4.354;2023-03-23T01:00:17;13.70;99.90
14411;DHT22;7290;50.854;4.354;2023-03-23T01:02:44;13.70;99.90
14411;DHT22;7290;50.854;4.354;2023-03-23T01:05:10;13.70;99.90
14411;DHT22;7290;50.854;4.354;2023-03-23T01:07:37;13.60;99.90
14411;DHT22;7290;50.854;4.354;2023-03-23T01:10:04;13.70;99.90
14411;DHT22;7290;50.854;4.354;2023-03-23T01:12:31;13.60;99.90
14411;DHT22;7290;50.854;4.354;2023-03-23T01:14:57;13.60;99.90
14411;DHT22;7290;50.854;4.354;2023-03-23T01:17:23;13.60;99.90
14411;DHT22;7290;50.854;4.354;2023-03-23T01:19:49;13.70;99.90
14411;DHT22;7290;50.854;4.354;2023-03-23T01:22:15;13.70;99.90
14411;DHT22;7290;50.854;4.354;2023-03-23T01:24:41;13.70;99.90
14411;DHT22;7290;50.854;4.354;2023-03-23T01:27:07;13.70;99.90
14411;DHT22;7290;50.854;4.354;2023-03-23T01:29:34;13.60;99.90
14411;DHT22;7290;50.854;4.354;2023-03-23T01:32:00;13.60;99.90
14411;DHT22;7290;50.854;4.354;2023-03-23T01:34:26;13.60;99.90
14411;DHT22;7290;50.854;4.354;2023-03-23T01:36:52;13.50;99.90
14411;DHT22;7290;50.854;4.354;2023-03-23T01:39:18;13.60;99.90
14411;DHT22;7290;50.854;4.354;2023-03-23T01:41:44;13.70;99.90
14411;DHT22;7290;50.854;4.354;2023-03-23T01:47:10;13.70;99.90
14411;DHT22;7290;50.854;4.354;2023-03-23T01:49:39;13.70;99.90
14411;DHT22;7290;50.854;4.354;2023-03-23T01:52:11;13.70;99.90
14411;DHT22;7290;50.854;4.354;2023-03-23T01:54:43;13.60;99.90
14411;DHT22;7290;50.854;4.354;2023-03-23T01:57:13;13.60;99.90
14411;DHT22;7290;50.854;4.354;2023-03-23T01:59:42;13.70;99.90
14411;DHT22;7290;50.854;4.354;2023-03-23T02:02:11;13.70;99.90
14411;DHT22;7290;50.854;4.354;2023-03-23T02:04:39;13.70;99.90
14411;DHT22;7290;50.854;4.354;2023-03-23T02:07:07;13.70;99.90
14411;DHT22;7290;50.854;4.354;2023-03-23T02:09:33;13.60;99.90
14411;DHT22;7290;50.854;4.354;2023-03-23T02:12:00;13.70;99.90
14411;DHT22;7290;50.854;4.354;2023-03-23T02:14:28;13.70;99.90
14411;DHT22;7290;50.854;4.354;2023-03-23T02:16:57;13.60;99.90
14411;DHT22;7290;50.854;4.354;2023-03-23T02:19:42;13.60;99.90
14411;DHT22;7290;50.854;4.354;2023-03-23T02:22:43;13.50;99.90
14411;DHT22;7290;50.854;4.354;2023-03-23T02:25:31;13.50;99.90
14411;DHT22;7290;50.854;4.354;2023-03-23T02:28:22;13.50;99.90
14411;DHT22;7290;50.854;4.354;2023-03-23T02:33:46;13.50;99.90
14411;DHT22;7290;50.854;4.354;2023-03-23T02:36:20;13.50;99.90
14411;DHT22;7290;50.854;4.354;2023-03-23T02:38:57;13.40;99.90
14411;DHT22;7290;50.854;4.354;2023-03-23T02:41:28;13.40;99.90
14411;DHT22;7290;50.854;4.354;2023-03-23T02:43:57;13.40;99.90
14411;DHT22;7290;50.854;4.354;2023-03-23T02:46:24;13.50;99.90
14411;DHT22;7290;50.854;4.354;2023-03-23T02:48:53;13.50;99.90
14411;DHT22;7290;50.854;4.354;2023-03-23T02:51:22;13.40;99.90
14411;DHT22;7290;50.854;4.354;2023-03-23T02:53:52;13.40;99.90
14411;DHT22;7290;50.854;4.354;2023-03-23T02:56:22;13.40;99.90
14411;DHT22;7290;50.854;4.354;2023-03-23T02:58:49;13.40;99.90
14411;DHT22;7290;50.854;4.354;2023-03-23T03:01:47;13.40;99.90
14411;DHT22;7290;50.854;4.354;2023-03-23T03:04:17;13.40;99.90
14411;DHT22;7290;50.854;4.354;2023-03-23T03:06:53;13.40;99.90
14411;DHT22;7290;50.854;4.354;2023-03-23T03:09:24;13.40;99.90
14411;DHT22;7290;50.854;4.354;2023-03-23T03:11:57;13.30;99.90
14411;DHT22;7290;50.854;4.354;2023-03-23T03:14:28;13.30;99.90
14411;DHT22;7290;50.854;4.354;2023-03-23T03:17:00;13.30;99.90
14411;DHT22;7290;50.854;4.354;2023-03-23T03:19:33;13.40;99.90
14411;DHT22;7290;50.854;4.354;2023-03-23T03:22:01;13.40;99.90
14411;DHT22;7290;50.854;4.354;2023-03-23T03:24:29;13.40;99.90
14411;DHT22;7290;50.854;4.354;2023-03-23T03:26:58;13.40;99.90
14411;DHT22;7290;50.854;4.354;2023-03-23T03:29:28;13.40;99.90
14411;DHT22;7290;50.854;4.354;2023-03-23T03:31:56;13.40;99.90
14411;DHT22;7290;50.854;4.354;2023-03-23T03:34:24;13.40;99.90
14411;DHT22;7290;50.854;4.354;2023-03-23T03:36:54;13.40;99.90
14411;DHT22;7290;50.854;4.354;2023-03-23T03:39:24;13.50;99.90
14411;DHT22;7290;50.854;4.354;2023-03-23T03:41:50;13.40;99.90
14411;DHT22;7290;50.854;4.354;2023-03-23T03:44:16;13.40;99.90
14411;DHT22;7290;50.854;4.354;2023-03-23T03:46:43;13.40;99.90
14411;DHT22;7290;50.854;4.354;2023-03-23T03:49:10;13.40;99.90
14411;DHT22;7290;50.854;4.354;2023-03-23T03:51:38;13.40;99.90
14411;DHT22;7290;50.854;4.354;2023-03-23T03:54:05;13.50;99.90
14411;DHT22;7290;50.854;4.354;2023-03-23T03:56:31;13.40;99.90
14411;DHT22;7290;50.854;4.354;2023-03-23T03:59:01;13.40;99.90
14411;DHT22;7290;50.854;4.354;2023-03-23T04:01:28;13.40;99.90
14411;DHT22;7290;50.854;4.354;2023-03-23T04:03:54;13.40;99.90
14411;DHT22;7290;50.854;4.354;2023-03-23T04:06:20;13.40;99.90
14411;DHT22;7290;50.854;4.354;2023-03-23T04:08:47;13.40;99.90
14411;DHT22;7290;50.854;4.354;2023-03-23T04:11:14;13.40;99.90
14411;DHT22;7290;50.854;4.354;2023-03-23T04:13:41;13.40;99.90
14411;DHT22;7290;50.854;4.354;2023-03-23T04:16:08;13.40;99.90
14411;DHT22;7290;50.854;4.354;2023-03-23T04:18:34;13.40;99.90
14411;DHT22;7290;50.854;4.354;2023-03-23T04:21:02;13.40;99.90
14411;DHT22;7290;50.854;4.354;2023-03-23T04:23:29;13.30;99.90
14411;DHT22;7290;50.854;4.354;2023-03-23T04:25:59;13.40;99.90
14411;DHT22;7290;50.854;4.354;2023-03-23T04:28:26;13.30;99.90
14411;DHT22;7290;50.854;4.354;2023-03-23T04:30:53;13.30;99.90
14411;DHT22;7290;50.854;4.354;2023-03-23T04:33:20;13.30;99.90
14411;DHT22;7290;50.854;4.354;2023-03-23T04:35:47;13.20;99.90
14411;DHT22;7290;50.854;4.354;2023-03-23T04:38:13;13.30;99.90
14411;DHT22;7290;50.854;4.354;2023-03-23T04:40:41;13.30;99.90
14411;DHT22;7290;50.854;4.354;2023-03-23T04:43:07;13.30;99.90
14411;DHT22;7290;50.854;4.354;2023-03-23T04:45:35;13.30;99.90
14411;DHT22;7290;50.854;4.354;2023-03-23T04:48:03;13.20;99.90
14411;DHT22;7290;50.854;4.354;2023-03-23T04:50:32;13.30;99.90
14411;DHT22;7290;50.854;4.354;2023-03-23T04:52:59;13.20;99.90
14411;DHT22;7290;50.854;4.354;2023-03-23T04:55:30;13.20;99.90
14411;DHT22;7290;50.854;4.354;2023-03-23T04:57:56;13.20;99.90
14411;DHT22;7290;50.854;4.354;2023-03-23T05:00:26;13.10;99.90
14411;DHT22;7290;50.854;4.354;2023-03-23T05:02:52;13.20;99.90
14411;DHT22;7290;50.854;4.354;2023-03-23T05:05:21;13.10;99.90
14411;DHT22;7290;50.854;4.354;2023-03-23T05:07:48;13.10;99.90
14411;DHT22;7290;50.854;4.354;2023-03-23T05:10:15;13.10;99.90
14411;DHT22;7290;50.854;4.354;2023-03-23T05:12:42;13.10;99.90
14411;DHT22;7290;50.854;4.354;2023-03-23T05:15:10;13.10;99.90
14411;DHT22;7290;50.854;4.354;2023-03-23T05:17:36;13.20;99.90
14411;DHT22;7290;50.854;4.354;2023-03-23T05:20:05;13.10;99.90
14411;DHT22;7290;50.854;4.354;2023-03-23T05:22:33;13.10;99.90
14411;DHT22;7290;50.854;4.354;2023-03-23T05:24:59;13.20;99.90
14411;DHT22;7290;50.854;4.354;2023-03-23T05:27:29;13.20;99.90
14411;DHT22;7290;50.854;4.354;2023-03-23T05:29:55;13.20;99.90
14411;DHT22;7290;50.854;4.354;2023-03-23T05:32:23;13.20;99.90
14411;DHT22;7290;50.854;4.354;2023-03-23T05:34:54;13.20;99.90
14411;DHT22;7290;50.854;4.354;2023-03-23T05:37:21;13.30;99.90
14411;DHT22;7290;50.854;4.354;2023-03-23T05:39:47;13.30;99.90
14411;DHT22;7290;50.854;4.354;2023-03-23T05:42:13;13.20;99.90
14411;DHT22;7290;50.854;4.354;2023-03-23T05:44:39;13.20;99.90
14411;DHT22;7290;50.854;4.354;2023-03-23T05:47:05;13.20;99.90
14411;DHT22;7290;50.854;4.354;2023-03-23T05:49:31;13.20;99.90
14411;DHT22;7290;50.854;4.354;2023-03-23T05:51:58;13.30;99.90
14411;DHT22;7290;50.854;4.354;2023-03-23T05:54:25;13.30;99.90
14411;DHT22;7290;50.854;4.354;2023-03-23T05:56:51;13.30;99.90
14411;DHT22;7290;50.854;4.354;2023-03-23T05:59:18;13.30;99.90
14411;DHT22;7290;50.854;4.354;2023-03-23T06:01:44;13.30;99.90
14411;DHT22;7290;50.854;4.354;2023-03-23T06:04:10;13.30;99.90
14411;DHT22;7290;50.854;4.354;2023-03-23T06:06:37;13.30;99.90
14411;DHT22;7290;50.854;4.354;2023-03-23T06:09:03;13.40;99.90
14411;DHT22;7290;50.854;4.354;2023-03-23T06:11:30;13.30;99.90
14411;DHT22;7290;50.854;4.354;2023-03-23T06:13:56;13.40;99.90
14411;DHT22;7290;50.854;4.354;2023-03-23T06:16:22;13.40;99.90
14411;DHT22;7290;50.854;4.354;2023-03-23T06:18:48;13.40;99.90
14411;DHT22;7290;50.854;4.354;2023-03-23T06:21:15;13.50;99.90
14411;DHT22;7290;50.854;4.354;2023-03-23T06:23:43;13.40;99.90
14411;DHT22;7290;50.854;4.354;2023-03-23T06:26:11;13.30;99.90
14411;DHT22;7290;50.854;4.354;2023-03-23T06:28:40;13.30;99.90
14411;DHT22;7290;50.854;4.354;2023-03-23T06:31:06;13.30;99.90
14411;DHT22;7290;50.854;4.354;2023-03-23T06:33:34;13.30;99.90
14411;DHT22;7290;50.854;4.354;2023-03-23T06:36:01;13.30;99.90
14411;DHT22;7290;50.854;4.354;2023-03-23T06:38:28;13.30;99.90
14411;DHT22;7290;50.854;4.354;2023-03-23T06:40:55;13.30;99.90
14411;DHT22;7290;50.854;4.354;2023-03-23T06:43:22;13.30;99.90
14411;DHT22;7290;50.854;4.354;2023-03-23T06:45:50;13.30;99.90
14411;DHT22;7290;50.854;4.354;2023-03-23T06:48:16;13.30;99.90
14411;DHT22;7290;50.854;4.354;2023-03-23T06:50:43;13.30;99.90
14411;DHT22;7290;50.854;4.354;2023-03-23T06:53:10;13.30;99.90
14411;DHT22;7290;50.854;4.354;2023-03-23T06:55:36;13.30;99.90
14411;DHT22;7290;50.854;4.354;2023-03-23T06:58:03;13.30;99.90
14411;DHT22;7290;50.854;4.354;2023-03-23T07:00:29;13.20;99.90
14411;DHT22;7290;50.854;4.354;2023-03-23T07:02:56;13.20;99.90
14411;DHT22;7290;50.854;4.354;2023-03-23T07:05:22;13.30;99.90
14411;DHT22;7290;50.854;4.354;2023-03-23T07:07:48;13.30;99.90
14411;DHT22;7290;50.854;4.354;2023-03-23T07:10:14;12.70;99.90
14411;DHT22;7290;50.854;4.354;2023-03-23T07:12:40;12.30;99.90
14411;DHT22;7290;50.854;4.354;2023-03-23T07:15:07;12.00;99.90
14411;DHT22;7290;50.854;4.354;2023-03-23T07:17:36;11.70;99.90
14411;DHT22;7290;50.854;4.354;2023-03-23T07:20:03;11.50;99.90
14411;DHT22;7290;50.854;4.354;2023-03-23T07:22:30;11.40;99.90
14411;DHT22;7290;50.854;4.354;2023-03-23T07:24:57;11.40;99.90
14411;DHT22;7290;50.854;4.354;2023-03-23T07:27:23;11.30;99.90
14411;DHT22;7290;50.854;4.354;2023-03-23T07:29:50;11.40;99.90
14411;DHT22;7290;50.854;4.354;2023-03-23T07:32:16;11.50;99.90
14411;DHT22;7290;50.854;4.354;2023-03-23T07:34:42;11.70;99.90
14411;DHT22;7290;50.854;4.354;2023-03-23T07:37:09;11.80;99.90
14411;DHT22;7290;50.854;4.354;2023-03-23T07:39:36;11.80;99.90
14411;DHT22;7290;50.854;4.354;2023-03-23T07:42:02;11.80;99.90
14411;DHT22;7290;50.854;4.354;2023-03-23T07:44:28;11.80;99.90
14411;DHT22;7290;50.854;4.354;2023-03-23T07:46:54;11.90;99.90
14411;DHT22;7290;50.854;4.354;2023-03-23T07:49:20;12.00;99.90
14411;DHT22;7290;50.854;4.354;2023-03-23T07:51:47;12.00;99.90
14411;DHT22;7290;50.854;4.354;2023-03-23T07:54:13;12.10;99.90
14411;DHT22;7290;50.854;4.354;2023-03-23T07:56:41;12.20;99.90
14411;DHT22;7290;50.854;4.354;2023-03-23T07:59:08;12.40;99.90
14411;DHT22;7290;50.854;4.354;2023-03-23T08:01:35;12.50;99.90
14411;DHT22;7290;50.854;4.354;2023-03-23T08:04:01;12.50;99.90
14411;DHT22;7290;50.854;4.354;2023-03-23T08:06:28;12.60;99.90
14411;DHT22;7290;50.854;4.354;2023-03-23T08:08:54;12.60;99.90
14411;DHT22;7290;50.854;4.354;2023-03-23T08:11:21;12.50;99.90
14411;DHT22;7290;50.854;4.354;2023-03-23T08:13:47;12.50;99.90
14411;DHT22;7290;50.854;4.354;2023-03-23T08:16:13;12.60;99.90
14411;DHT22;7290;50.854;4.354;2023-03-23T08:18:39;12.50;99.90
14411;DHT22;7290;50.854;4.354;2023-03-23T08:21:06;12.40;99.90
14411;DHT22;7290;50.854;4.354;2023-03-23T08:23:34;12.40;99.90
14411;DHT22;7290;50.854;4.354;2023-03-23T08:26:02;12.30;99.90
14411;DHT22;7290;50.854;4.354;2023-03-23T08:28:33;12.10;99.90
14411;DHT22;7290;50.854;4.354;2023-03-23T08:31:00;12.10;99.90
14411;DHT22;7290;50.854;4.354;2023-03-23T08:33:26;12.10;99.90
14411;DHT22;7290;50.854;4.354;2023-03-23T08:35:57;12.20;99.90
14411;DHT22;7290;50.854;4.354;2023-03-23T08:38:24;12.00;99.90
14411;DHT22;7290;50.854;4.354;2023-03-23T08:40:50;12.10;99.90
14411;DHT22;7290;50.854;4.354;2023-03-23T08:43:16;12.20;99.90
14411;DHT22;7290;50.854;4.354;2023-03-23T08:45:43;12.10;99.90
14411;DHT22;7290;50.854;4.354;2023-03-23T08:48:09;12.00;99.90
14411;DHT22;7290;50.854;4.354;2023-03-23T08:50:36;11.90;99.90
14411;DHT22;7290;50.854;4.354;2023-03-23T08:53:02;11.90;99.90
14411;DHT22;7290;50.854;4.354;2023-03-23T08:55:28;12.10;99.90
14411;DHT22;7290;50.854;4.354;2023-03-23T08:57:55;12.30;99.90
14411;DHT22;7290;50.854;4.354;2023-03-23T09:00:22;12.60;99.90
14411;DHT22;7290;50.854;4.354;2023-03-23T09:02:52;12.60;99.90
14411;DHT22;7290;50.854;4.354;2023-03-23T09:05:21;12.60;99.90
14411;DHT22;7290;50.854;4.354;2023-03-23T09:07:51;12.40;99.90
14411;DHT22;7290;50.854;4.354;2023-03-23T09:10:18;12.30;99.90
14411;DHT22;7290;50.854;4.354;2023-03-23T09:12:45;12.30;99.90
14411;DHT22;7290;50.854;4.354;2023-03-23T09:15:16;12.20;99.90
14411;DHT22;7290;50.854;4.354;2023-03-23T09:17:44;12.30;99.90
14411;DHT22;7290;50.854;4.354;2023-03-23T09:20:13;12.40;99.90
14411;DHT22;7290;50.854;4.354;2023-03-23T09:22:40;12.60;99.90
14411;DHT22;7290;50.854;4.354;2023-03-23T09:25:07;12.90;99.90
14411;DHT22;7290;50.854;4.354;2023-03-23T09:27:34;13.30;99.90
14411;DHT22;7290;50.854;4.354;2023-03-23T09:30:02;13.30;99.90
14411;DHT22;7290;50.854;4.354;2023-03-23T09:32:30;13.30;99.90
14411;DHT22;7290;50.854;4.354;2023-03-23T09:34:56;13.20;99.90
14411;DHT22;7290;50.854;4.354;2023-03-23T09:37:23;13.00;99.90
14411;DHT22;7290;50.854;4.354;2023-03-23T09:39:49;12.90;99.90
14411;DHT22;7290;50.854;4.354;2023-03-23T09:42:31;13.10;99.90
14411;DHT22;7290;50.854;4.354;2023-03-23T09:45:13;13.50;99.90
14411;DHT22;7290;50.854;4.354;2023-03-23T09:47:47;14.60;99.90
14411;DHT22;7290;50.854;4.354;2023-03-23T09:50:16;15.30;99.90
14411;DHT22;7290;50.854;4.354;2023-03-23T09:52:47;15.30;99.90
14411;DHT22;7290;50.854;4.354;2023-03-23T09:55:17;15.10;99.90
14411;DHT22;7290;50.854;4.354;2023-03-23T09:57:49;15.40;99.90
14411;DHT22;7290;50.854;4.354;2023-03-23T10:00:21;15.00;99.90
14411;DHT22;7290;50.854;4.354;2023-03-23T10:03:05;14.50;99.90
14411;DHT22;7290;50.854;4.354;2023-03-23T10:05:34;14.50;99.90
14411;DHT22;7290;50.854;4.354;2023-03-23T10:08:08;14.60;99.90
14411;DHT22;7290;50.854;4.354;2023-03-23T10:10:43;14.60;99.90
14411;DHT22;7290;50.854;4.354;2023-03-23T10:13:17;14.70;99.90
14411;DHT22;7290;50.854;4.354;2023-03-23T10:15:46;14.50;99.90
14411;DHT22;7290;50.854;4.354;2023-03-23T10:18:16;14.60;99.90
14411;DHT22;7290;50.854;4.354;2023-03-23T10:20:47;14.60;99.90
14411;DHT22;7290;50.854;4.354;2023-03-23T10:23:34;14.80;99.90
14411;DHT22;7290;50.854;4.354;2023-03-23T10:26:07;14.80;99.90
14411;DHT22;7290;50.854;4.354;2023-03-23T10:28:39;14.60;99.90
14411;DHT22;7290;50.854;4.354;2023-03-23T10:31:09;14.40;99.90
14411;DHT22;7290;50.854;4.354;2023-03-23T10:33:40;14.30;99.90
14411;DHT22;7290;50.854;4.354;2023-03-23T10:36:12;14.20;99.90
14411;DHT22;7290;50.854;4.354;2023-03-23T10:38:43;14.40;99.90
14411;DHT22;7290;50.854;4.354;2023-03-23T10:41:11;14.30;99.90
14411;DHT22;7290;50.854;4.354;2023-03-23T10:43:38;14.30;99.90
14411;DHT22;7290;50.854;4.354;2023-03-23T10:46:14;14.30;99.90
14411;DHT22;7290;50.854;4.354;2023-03-23T10:48:43;14.60;99.90
14411;DHT22;7290;50.854;4.354;2023-03-23T10:51:13;15.50;99.90
14411;DHT22;7290;50.854;4.354;2023-03-23T10:53:44;16.10;99.90
14411;DHT22;7290;50.854;4.354;2023-03-23T10:56:22;16.10;99.90
14411;DHT22;7290;50.854;4.354;2023-03-23T10:58:49;15.90;99.90
14411;DHT22;7290;50.854;4.354;2023-03-23T11:01:18;15.90;99.90
14411;DHT22;7290;50.854;4.354;2023-03-23T11:03:47;15.80;99.90
14411;DHT22;7290;50.854;4.354;2023-03-23T11:06:20;15.40;99.90
14411;DHT22;7290;50.854;4.354;2023-03-23T11:08:51;15.60;99.90
14411;DHT22;7290;50.854;4.354;2023-03-23T11:11:19;16.30;99.90
14411;DHT22;7290;50.854;4.354;2023-03-23T11:13:48;17.20;99.90
14411;DHT22;7290;50.854;4.354;2023-03-23T11:16:24;17.50;99.90
14411;DHT22;7290;50.854;4.354;2023-03-23T11:18:50;17.10;99.90
14411;DHT22;7290;50.854;4.354;2023-03-23T11:21:20;16.70;99.90
14411;DHT22;7290;50.854;4.354;2023-03-23T11:23:50;16.30;99.90
14411;DHT22;7290;50.854;4.354;2023-03-23T11:26:20;16.00;99.90
14411;DHT22;7290;50.854;4.354;2023-03-23T11:28:58;15.80;99.90
14411;DHT22;7290;50.854;4.354;2023-03-23T11:31:29;15.90;99.90
14411;DHT22;7290;50.854;4.354;2023-03-23T11:33:58;16.70;99.90
14411;DHT22;7290;50.854;4.354;2023-03-23T11:36:33;17.50;99.90
14411;DHT22;7290;50.854;4.354;2023-03-23T11:39:00;17.30;99.90
14411;DHT22;7290;50.854;4.354;2023-03-23T11:41:33;16.90;99.90
14411;DHT22;7290;50.854;4.354;2023-03-23T11:44:08;16.80;99.90
14411;DHT22;7290;50.854;4.354;2023-03-23T11:46:38;16.50;99.90
14411;DHT22;7290;50.854;4.354;2023-03-23T11:49:12;17.10;99.90
14411;DHT22;7290;50.854;4.354;2023-03-23T11:51:44;16.90;99.90
14411;DHT22;7290;50.854;4.354;2023-03-23T11:54:16;16.90;99.90
14411;DHT22;7290;50.854;4.354;2023-03-23T11:56:46;17.00;99.90
14411;DHT22;7290;50.854;4.354;2023-03-23T11:59:14;17.00;99.90
14411;DHT22;7290;50.854;4.354;2023-03-23T12:01:50;17.20;99.90
14411;DHT22;7290;50.854;4.354;2023-03-23T12:04:46;17.50;99.90
14411;DHT22;7290;50.854;4.354;2023-03-23T12:07:21;16.80;99.90
14411;DHT22;7290;50.854;4.354;2023-03-23T12:09:57;16.30;99.90
14411;DHT22;7290;50.854;4.354;2023-03-23T12:12:32;17.00;99.90
14411;DHT22;7290;50.854;4.354;2023-03-23T12:15:08;18.20;99.90
14411;DHT22;7290;50.854;4.354;2023-03-23T12:17:42;18.10;99.90
14411;DHT22;7290;50.854;4.354;2023-03-23T12:20:21;17.50;99.90
14411;DHT22;7290;50.854;4.354;2023-03-23T12:23:03;17.30;99.90
14411;DHT22;7290;50.854;4.354;2023-03-23T12:25:53;17.20;99.90
14411;DHT22;7290;50.854;4.354;2023-03-23T12:28:29;17.10;99.90
14411;DHT22;7290;50.854;4.354;2023-03-23T12:31:03;16.90;99.90
14411;DHT22;7290;50.854;4.354;2023-03-23T12:33:41;16.90;99.90
14411;DHT22;7290;50.854;4.354;2023-03-23T12:36:18;16.90;99.90
14411;DHT22;7290;50.854;4.354;2023-03-23T12:38:58;17.00;99.90
14411;DHT22;7290;50.854;4.354;2023-03-23T12:41:37;17.40;99.90
14411;DHT22;7290;50.854;4.354;2023-03-23T12:44:07;17.40;99.90
14411;DHT22;7290;50.854;4.354;2023-03-23T12:47:03;17.50;99.90
14411;DHT22;7290;50.854;4.354;2023-03-23T12:49:36;17.20;99.90
14411;DHT22;7290;50.854;4.354;2023-03-23T12:52:11;17.00;99.90
14411;DHT22;7290;50.854;4.354;2023-03-23T12:54:42;17.20;99.90
14411;DHT22;7290;50.854;4.354;2023-03-23T12:57:17;16.90;99.90
14411;DHT22;7290;50.854;4.354;2023-03-23T12:59:48;16.70;99.90
14411;DHT22;7290;50.854;4.354;2023-03-23T13:02:22;16.60;99.90
14411;DHT22;7290;50.854;4.354;2023-03-23T13:04:52;16.50;99.90
14411;DHT22;7290;50.854;4.354;2023-03-23T13:07:26;16.40;99.90
14411;DHT22;7290;50.854;4.354;2023-03-23T13:10:03;16.40;99.90
14411;DHT22;7290;50.854;4.354;2023-03-23T13:12:31;16.70;99.90
14411;DHT22;7290;50.854;4.354;2023-03-23T13:15:10;16.70;99.90
14411;DHT22;7290;50.854;4.354;2023-03-23T13:17:47;16.70;99.90
14411;DHT22;7290;50.854;4.354;2023-03-23T13:20:31;16.80;99.90
14411;DHT22;7290;50.854;4.354;2023-03-23T13:23:02;17.00;99.90
14411;DHT22;7290;50.854;4.354;2023-03-23T13:25:46;16.80;99.90
14411;DHT22;7290;50.854;4.354;2023-03-23T13:28:16;16.80;99.90
14411;DHT22;7290;50.854;4.354;2023-03-23T13:30:53;16.80;99.90
14411;DHT22;7290;50.854;4.354;2023-03-23T13:33:20;16.90;99.90
14411;DHT22;7290;50.854;4.354;2023-03-23T13:35:48;16.90;99.90
14411;DHT22;7290;50.854;4.354;2023-03-23T13:38:19;17.10;99.90
14411;DHT22;7290;50.854;4.354;2023-03-23T13:40:46;17.10;99.90
14411;DHT22;7290;50.854;4.354;2023-03-23T13:43:13;17.00;99.90
14411;DHT22;7290;50.854;4.354;2023-03-23T13:45:45;16.80;99.90
14411;DHT22;7290;50.854;4.354;2023-03-23T13:48:20;16.80;99.90
14411;DHT22;7290;50.854;4.354;2023-03-23T13:50:52;16.60;99.90
14411;DHT22;7290;50.854;4.354;2023-03-23T13:53:25;16.60;99.90
14411;DHT22;7290;50.854;4.354;2023-03-23T13:56:06;16.40;99.90
14411;DHT22;7290;50.854;4.354;2023-03-23T13:58:32;16.30;99.90
14411;DHT22;7290;50.854;4.354;2023-03-23T14:01:10;16.10;99.90
14411;DHT22;7290;50.854;4.354;2023-03-23T14:03:39;16.20;99.90
14411;DHT22;7290;50.854;4.354;2023-03-23T14:06:11;16.30;99.90
14411;DHT22;7290;50.854;4.354;2023-03-23T14:08:40;16.00;99.90
14411;DHT22;7290;50.854;4.354;2023-03-23T14:11:13;16.00;99.90
14411;DHT22;7290;50.854;4.354;2023-03-23T14:13:43;16.20;99.90
14411;DHT22;7290;50.854;4.354;2023-03-23T14:16:16;16.20;99.90
14411;DHT22;7290;50.854;4.354;2023-03-23T14:18:53;16.40;99.90
14411;DHT22;7290;50.854;4.354;2023-03-23T14:21:31;16.60;99.90
14411;DHT22;7290;50.854;4.354;2023-03-23T14:24:03;16.40;99.90
14411;DHT22;7290;50.854;4.354;2023-03-23T14:26:32;16.40;99.90
14411;DHT22;7290;50.854;4.354;2023-03-23T14:28:59;16.20;99.90
14411;DHT22;7290;50.854;4.354;2023-03-23T14:31:27;16.20;99.90
14411;DHT22;7290;50.854;4.354;2023-03-23T14:34:00;16.20;99.90
14411;DHT22;7290;50.854;4.354;2023-03-23T14:36:28;16.20;99.90
14411;DHT22;7290;50.854;4.354;2023-03-23T14:39:00;16.30;99.90
14411;DHT22;7290;50.854;4.354;2023-03-23T14:41:29;16.20;99.90
14411;DHT22;7290;50.854;4.354;2023-03-23T14:43:56;16.30;99.90
14411;DHT22;7290;50.854;4.354;2023-03-23T14:46:22;16.10;99.90
14411;DHT22;7290;50.854;4.354;2023-03-23T14:48:51;16.10;99.90
14411;DHT22;7290;50.854;4.354;2023-03-23T14:51:18;16.00;99.90
14411;DHT22;7290;50.854;4.354;2023-03-23T14:53:46;15.90;99.90
14411;DHT22;7290;50.854;4.354;2023-03-23T14:56:14;16.00;99.90
14411;DHT22;7290;50.854;4.354;2023-03-23T14:58:43;16.10;99.90
14411;DHT22;7290;50.854;4.354;2023-03-23T15:01:12;16.30;99.90
14411;DHT22;7290;50.854;4.354;2023-03-23T15:03:41;16.40;99.90
14411;DHT22;7290;50.854;4.354;2023-03-23T15:06:13;16.50;99.90
14411;DHT22;7290;50.854;4.354;2023-03-23T15:08:40;16.60;99.90
14411;DHT22;7290;50.854;4.354;2023-03-23T15:11:10;16.50;99.90
14411;DHT22;7290;50.854;4.354;2023-03-23T15:13:41;16.60;99.90
14411;DHT22;7290;50.854;4.354;2023-03-23T15:16:14;16.60;99.90
14411;DHT22;7290;50.854;4.354;2023-03-23T15:18:47;16.50;99.90
14411;DHT22;7290;50.854;4.354;2023-03-23T15:21:22;16.60;99.90
14411;DHT22;7290;50.854;4.354;2023-03-23T15:23:51;16.80;99.90
14411;DHT22;7290;50.854;4.354;2023-03-23T15:26:32;16.60;99.90
14411;DHT22;7290;50.854;4.354;2023-03-23T15:29:12;16.60;99.90
14411;DHT22;7290;50.854;4.354;2023-03-23T15:31:43;16.60;99.90
14411;DHT22;7290;50.854;4.354;2023-03-23T15:37:00;16.60;99.90
14411;DHT22;7290;50.854;4.354;2023-03-23T15:39:27;16.60;99.90
14411;DHT22;7290;50.854;4.354;2023-03-23T15:41:54;16.60;99.90
14411;DHT22;7290;50.854;4.354;2023-03-23T15:44:24;16.40;99.90
14411;DHT22;7290;50.854;4.354;2023-03-23T15:46:51;16.40;99.90
14411;DHT22;7290;50.854;4.354;2023-03-23T15:49:18;16.40;99.90
14411;DHT22;7290;50.854;4.354;2023-03-23T15:51:44;16.30;99.90
14411;DHT22;7290;50.854;4.354;2023-03-23T15:54:13;16.30;99.90
14411;DHT22;7290;50.854;4.354;2023-03-23T15:56:39;16.10;99.90
14411;DHT22;7290;50.854;4.354;2023-03-23T15:59:07;16.30;99.90
14411;DHT22;7290;50.854;4.354;2023-03-23T16:01:33;16.50;99.90
14411;DHT22;7290;50.854;4.354;2023-03-23T16:04:03;16.50;99.90
14411;DHT22;7290;50.854;4.354;2023-03-23T16:06:31;16.60;99.90
14411;DHT22;7290;50.854;4.354;2023-03-23T16:08:58;16.80;99.90